KDAG

Barstow-Daggett Airport

Daggett, California, USA
METAR KDAG 141250Z AUTO 27009KT 10SM CLR 23/09 A2988 RMK AO2 SLP086 T02330089
Observed Flight Rules
Aug-14 @ 12:50 UTC (53 minutes ago) Visual Flight Rules
Wind Visibility Clouds
270° at 9 knots 10 miles
  • Clear skies
Temperatures Readings
Current 23°C / 73°F
Dewpoint 9°C / 48°F
Humidity 41%
Altimeter 29.88" Hg
Pressure 1008.6 hPa
Elevation 587
METAR KDAG 141250Z AUTO 27009KT 10SM CLR 23/09 A2988 RMK AO2 SLP086 T02330089
Observed Flight Rules
Aug-14 @ 12:50 UTC
(53 minutes ago)
VFR
Wind Visibility
270° at 9 knots 10 miles
Clouds
  • Clear skies
Temperature Dewpoint
23°C / 73°F 9°C / 48°F
Humidity Altimeter Pressure
41% 29.88" Hg 1008.6 hPa